Vergennes, Vermont
Current Conditions -  °F | °C
As of 12:55 AM on Friday 28 Nov 2014 (Local Time) from K6B0 Reporting Station
Light Snow Light Snow  
Wind Chill: 26°   Ceiling: 4100
Heat Index: 26°   Visibility: 10mi
Dew Point: 22°   Wind: 0mph
Humidity: 86%   Direction: NA
Pressure: 30.01"   Gusts: NA
Location:  44.17°N, 73.25°W
Report Text: K6B0 280555Z AUTO 00000KT 10SM -SN BKN041 OVC050 M03/M05 A3001 RMK AO2 T10331053 11018 21035
Loading
Personal Weather Stations






























Interactive Weather Map New forecast layout! Learn more

10-Day Weather Forecast

Advertisements
Track Severe Weather on mobile